Celle, Celle Air Base (ETHC)

NameCelle Air Base
CityCelle
CountryGermany
ICAOETHC
IATAZCN
Altitude39 m
CoordinatesGoogle Map
Live Air TrafficLiveATC.net
METARETHC 191700Z VRB03KT 9999 FEW035 SCT060 08/01 Q1028 BLU+FCST CANCEL
2019-03-19 17:00:00 Wind: North (0°) 1.54 m/s - Visibility: > 10000 m - Temperature: 8 °C - Dew point: 1 °C - Humidity: 61.6% - Pressure: 1028 hPa
Statistics

The table below shows the detailed information of all flights to/from Celle, Celle Air Base (ETHC).